sensor_id;sensor_type;location;lat;lon;timestamp;temperature;humidity
18126;DHT22;53956;52.442;13.284;2023-12-04T00:01:35;1.30;99.90
18126;DHT22;53956;52.442;13.284;2023-12-04T00:04:02;1.40;99.90
18126;DHT22;53956;52.442;13.284;2023-12-04T00:06:29;1.40;99.90
18126;DHT22;53956;52.442;13.284;2023-12-04T00:08:55;1.70;99.90
18126;DHT22;53956;52.442;13.284;2023-12-04T00:11:23;1.50;99.90
18126;DHT22;53956;52.442;13.284;2023-12-04T00:13:50;1.40;99.90
18126;DHT22;53956;52.442;13.284;2023-12-04T00:16:18;1.50;99.90
18126;DHT22;53956;52.442;13.284;2023-12-04T00:18:45;1.40;99.90
18126;DHT22;53956;52.442;13.284;2023-12-04T00:21:12;1.20;99.90
18126;DHT22;53956;52.442;13.284;2023-12-04T00:23:39;1.30;99.90
18126;DHT22;53956;52.442;13.284;2023-12-04T00:26:06;1.50;99.90
18126;DHT22;53956;52.442;13.284;2023-12-04T00:28:37;1.20;99.90
18126;DHT22;53956;52.442;13.284;2023-12-04T00:31:04;1.30;99.90
18126;DHT22;53956;52.442;13.284;2023-12-04T00:33:31;1.20;99.90
18126;DHT22;53956;52.442;13.284;2023-12-04T00:35:57;1.20;99.90
18126;DHT22;53956;52.442;13.284;2023-12-04T00:38:24;1.40;99.90
18126;DHT22;53956;52.442;13.284;2023-12-04T00:40:50;1.20;99.90
18126;DHT22;53956;52.442;13.284;2023-12-04T00:43:17;1.30;99.90
18126;DHT22;53956;52.442;13.284;2023-12-04T00:45:45;1.10;99.90
18126;DHT22;53956;52.442;13.284;2023-12-04T00:48:12;1.20;99.90
18126;DHT22;53956;52.442;13.284;2023-12-04T00:50:38;1.20;99.90
18126;DHT22;53956;52.442;13.284;2023-12-04T00:53:05;1.20;99.90
18126;DHT22;53956;52.442;13.284;2023-12-04T00:55:31;1.10;99.90
18126;DHT22;53956;52.442;13.284;2023-12-04T00:57:58;1.20;99.90
18126;DHT22;53956;52.442;13.284;2023-12-04T01:00:25;1.30;99.90
18126;DHT22;53956;52.442;13.284;2023-12-04T01:02:52;1.00;99.90
18126;DHT22;53956;52.442;13.284;2023-12-04T01:05:19;1.00;99.90
18126;DHT22;53956;52.442;13.284;2023-12-04T01:07:46;1.30;99.90
18126;DHT22;53956;52.442;13.284;2023-12-04T01:10:12;1.00;99.90
18126;DHT22;53956;52.442;13.284;2023-12-04T01:12:39;1.20;99.90
18126;DHT22;53956;52.442;13.284;2023-12-04T01:15:06;1.20;99.90
18126;DHT22;53956;52.442;13.284;2023-12-04T01:17:34;1.10;99.90
18126;DHT22;53956;52.442;13.284;2023-12-04T01:20:03;1.10;99.90
18126;DHT22;53956;52.442;13.284;2023-12-04T01:22:30;1.00;99.90
18126;DHT22;53956;52.442;13.284;2023-12-04T01:24:57;1.30;99.90
18126;DHT22;53956;52.442;13.284;2023-12-04T01:27:23;1.20;99.90
18126;DHT22;53956;52.442;13.284;2023-12-04T01:29:50;1.10;99.90
18126;DHT22;53956;52.442;13.284;2023-12-04T01:32:16;0.70;99.90
18126;DHT22;53956;52.442;13.284;2023-12-04T01:34:43;1.10;99.90
18126;DHT22;53956;52.442;13.284;2023-12-04T01:37:11;0.80;99.90
18126;DHT22;53956;52.442;13.284;2023-12-04T01:39:38;0.80;99.90
18126;DHT22;53956;52.442;13.284;2023-12-04T01:42:04;1.00;99.90
18126;DHT22;53956;52.442;13.284;2023-12-04T01:44:31;1.20;99.90
18126;DHT22;53956;52.442;13.284;2023-12-04T01:46:57;1.10;99.90
18126;DHT22;53956;52.442;13.284;2023-12-04T01:49:23;1.10;99.90
18126;DHT22;53956;52.442;13.284;2023-12-04T01:51:50;1.00;99.90
18126;DHT22;53956;52.442;13.284;2023-12-04T01:54:19;1.20;99.90
18126;DHT22;53956;52.442;13.284;2023-12-04T01:56:46;1.10;99.90
18126;DHT22;53956;52.442;13.284;2023-12-04T01:59:13;1.10;99.90
18126;DHT22;53956;52.442;13.284;2023-12-04T02:01:40;1.20;99.90
18126;DHT22;53956;52.442;13.284;2023-12-04T02:04:06;1.20;99.90
18126;DHT22;53956;52.442;13.284;2023-12-04T02:06:33;1.30;99.90
18126;DHT22;53956;52.442;13.284;2023-12-04T02:09:01;1.40;99.90
18126;DHT22;53956;52.442;13.284;2023-12-04T02:11:29;1.30;99.90
18126;DHT22;53956;52.442;13.284;2023-12-04T02:13:56;1.10;99.90
18126;DHT22;53956;52.442;13.284;2023-12-04T02:16:23;1.10;99.90
18126;DHT22;53956;52.442;13.284;2023-12-04T02:18:51;1.30;99.90
18126;DHT22;53956;52.442;13.284;2023-12-04T02:21:18;1.20;99.90
18126;DHT22;53956;52.442;13.284;2023-12-04T02:23:49;1.30;99.90
18126;DHT22;53956;52.442;13.284;2023-12-04T02:26:16;1.10;99.90
18126;DHT22;53956;52.442;13.284;2023-12-04T02:28:48;1.00;99.90
18126;DHT22;53956;52.442;13.284;2023-12-04T02:31:18;1.20;99.90
18126;DHT22;53956;52.442;13.284;2023-12-04T02:33:47;1.20;99.90
18126;DHT22;53956;52.442;13.284;2023-12-04T02:36:14;1.10;99.90
18126;DHT22;53956;52.442;13.284;2023-12-04T02:38:41;1.10;99.90
18126;DHT22;53956;52.442;13.284;2023-12-04T02:41:09;1.20;99.90
18126;DHT22;53956;52.442;13.284;2023-12-04T02:43:36;1.30;99.90
18126;DHT22;53956;52.442;13.284;2023-12-04T02:46:03;1.20;99.90
18126;DHT22;53956;52.442;13.284;2023-12-04T02:48:29;1.20;99.90
18126;DHT22;53956;52.442;13.284;2023-12-04T02:50:56;1.10;99.90
18126;DHT22;53956;52.442;13.284;2023-12-04T02:53:23;1.00;99.90
18126;DHT22;53956;52.442;13.284;2023-12-04T02:55:49;1.00;99.90
18126;DHT22;53956;52.442;13.284;2023-12-04T02:58:17;1.00;99.90
18126;DHT22;53956;52.442;13.284;2023-12-04T03:00:44;1.10;99.90
18126;DHT22;53956;52.442;13.284;2023-12-04T03:03:11;1.00;99.90
18126;DHT22;53956;52.442;13.284;2023-12-04T03:05:37;1.10;99.90
18126;DHT22;53956;52.442;13.284;2023-12-04T03:08:04;1.30;99.90
18126;DHT22;53956;52.442;13.284;2023-12-04T03:10:31;1.10;99.90
18126;DHT22;53956;52.442;13.284;2023-12-04T03:12:57;1.20;99.90
18126;DHT22;53956;52.442;13.284;2023-12-04T03:15:25;1.20;99.90
18126;DHT22;53956;52.442;13.284;2023-12-04T03:17:54;1.10;99.90
18126;DHT22;53956;52.442;13.284;2023-12-04T03:20:20;1.20;99.90
18126;DHT22;53956;52.442;13.284;2023-12-04T03:22:47;0.90;99.90
18126;DHT22;53956;52.442;13.284;2023-12-04T03:25:14;1.20;99.90
18126;DHT22;53956;52.442;13.284;2023-12-04T03:27:40;1.00;99.90
18126;DHT22;53956;52.442;13.284;2023-12-04T03:30:08;1.10;99.90
18126;DHT22;53956;52.442;13.284;2023-12-04T03:32:36;1.20;99.90
18126;DHT22;53956;52.442;13.284;2023-12-04T03:35:02;1.10;99.90
18126;DHT22;53956;52.442;13.284;2023-12-04T03:37:29;1.00;99.90
18126;DHT22;53956;52.442;13.284;2023-12-04T03:39:56;1.10;99.90
18126;DHT22;53956;52.442;13.284;2023-12-04T03:42:22;0.90;99.90
18126;DHT22;53956;52.442;13.284;2023-12-04T03:44:49;1.10;99.90
18126;DHT22;53956;52.442;13.284;2023-12-04T03:47:16;1.20;99.90
18126;DHT22;53956;52.442;13.284;2023-12-04T03:49:44;1.30;99.90
18126;DHT22;53956;52.442;13.284;2023-12-04T03:52:10;1.30;99.90
18126;DHT22;53956;52.442;13.284;2023-12-04T03:54:37;1.30;99.90
18126;DHT22;53956;52.442;13.284;2023-12-04T03:57:04;1.20;99.90
18126;DHT22;53956;52.442;13.284;2023-12-04T03:59:30;1.00;99.90
18126;DHT22;53956;52.442;13.284;2023-12-04T04:01:57;1.00;99.90
18126;DHT22;53956;52.442;13.284;2023-12-04T04:04:24;1.10;99.90
18126;DHT22;53956;52.442;13.284;2023-12-04T04:06:51;0.90;99.90
18126;DHT22;53956;52.442;13.284;2023-12-04T04:09:18;1.20;99.90
18126;DHT22;53956;52.442;13.284;2023-12-04T04:11:45;1.00;99.90
18126;DHT22;53956;52.442;13.284;2023-12-04T04:14:12;1.00;99.90
18126;DHT22;53956;52.442;13.284;2023-12-04T04:16:39;1.00;99.90
18126;DHT22;53956;52.442;13.284;2023-12-04T04:19:06;1.20;99.90
18126;DHT22;53956;52.442;13.284;2023-12-04T04:21:33;1.40;99.90
18126;DHT22;53956;52.442;13.284;2023-12-04T04:24:01;1.10;99.90
18126;DHT22;53956;52.442;13.284;2023-12-04T04:26:27;1.20;99.90
18126;DHT22;53956;52.442;13.284;2023-12-04T04:28:54;1.30;99.90
18126;DHT22;53956;52.442;13.284;2023-12-04T04:31:21;1.10;99.90
18126;DHT22;53956;52.442;13.284;2023-12-04T04:33:47;1.60;99.90
18126;DHT22;53956;52.442;13.284;2023-12-04T04:36:14;1.40;99.90
18126;DHT22;53956;52.442;13.284;2023-12-04T04:38:41;1.20;99.90
18126;DHT22;53956;52.442;13.284;2023-12-04T04:41:13;1.10;99.90
18126;DHT22;53956;52.442;13.284;2023-12-04T04:43:39;1.20;99.90
18126;DHT22;53956;52.442;13.284;2023-12-04T04:46:06;1.00;99.90
18126;DHT22;53956;52.442;13.284;2023-12-04T04:48:33;0.60;99.90
18126;DHT22;53956;52.442;13.284;2023-12-04T04:51:00;0.60;99.90
18126;DHT22;53956;52.442;13.284;2023-12-04T04:53:26;1.10;99.90
18126;DHT22;53956;52.442;13.284;2023-12-04T04:55:54;1.00;99.90
18126;DHT22;53956;52.442;13.284;2023-12-04T04:58:22;1.10;99.90
18126;DHT22;53956;52.442;13.284;2023-12-04T05:00:48;0.90;99.90
18126;DHT22;53956;52.442;13.284;2023-12-04T05:03:15;0.80;99.90
18126;DHT22;53956;52.442;13.284;2023-12-04T05:05:42;1.10;99.90
18126;DHT22;53956;52.442;13.284;2023-12-04T05:08:08;0.90;99.90
18126;DHT22;53956;52.442;13.284;2023-12-04T05:10:37;0.60;99.90
18126;DHT22;53956;52.442;13.284;2023-12-04T05:13:04;0.60;99.90
18126;DHT22;53956;52.442;13.284;2023-12-04T05:15:32;0.70;99.90
18126;DHT22;53956;52.442;13.284;2023-12-04T05:17:58;0.60;99.90
18126;DHT22;53956;52.442;13.284;2023-12-04T05:20:25;0.40;99.90
18126;DHT22;53956;52.442;13.284;2023-12-04T05:22:51;0.50;99.90
18126;DHT22;53956;52.442;13.284;2023-12-04T05:25:18;0.70;99.90
18126;DHT22;53956;52.442;13.284;2023-12-04T05:27:45;0.70;99.90
18126;DHT22;53956;52.442;13.284;2023-12-04T05:30:12;0.80;99.90
18126;DHT22;53956;52.442;13.284;2023-12-04T05:32:40;0.90;99.90
18126;DHT22;53956;52.442;13.284;2023-12-04T05:35:07;0.90;99.90
18126;DHT22;53956;52.442;13.284;2023-12-04T05:37:34;0.70;99.90
18126;DHT22;53956;52.442;13.284;2023-12-04T05:40:00;0.60;99.90
18126;DHT22;53956;52.442;13.284;2023-12-04T05:42:28;0.80;99.90
18126;DHT22;53956;52.442;13.284;2023-12-04T05:44:55;0.70;99.90
18126;DHT22;53956;52.442;13.284;2023-12-04T05:47:22;0.80;99.90
18126;DHT22;53956;52.442;13.284;2023-12-04T05:49:50;0.80;99.90
18126;DHT22;53956;52.442;13.284;2023-12-04T05:52:17;0.70;99.90
18126;DHT22;53956;52.442;13.284;2023-12-04T05:54:44;0.60;99.90
18126;DHT22;53956;52.442;13.284;2023-12-04T05:57:11;0.60;99.90
18126;DHT22;53956;52.442;13.284;2023-12-04T05:59:37;0.60;99.90
18126;DHT22;53956;52.442;13.284;2023-12-04T06:02:04;0.70;99.90
18126;DHT22;53956;52.442;13.284;2023-12-04T06:04:31;0.80;99.90
18126;DHT22;53956;52.442;13.284;2023-12-04T06:06:59;0.90;99.90
18126;DHT22;53956;52.442;13.284;2023-12-04T06:09:25;1.20;99.90
18126;DHT22;53956;52.442;13.284;2023-12-04T06:11:52;1.10;99.90
18126;DHT22;53956;52.442;13.284;2023-12-04T06:14:18;1.00;99.90
18126;DHT22;53956;52.442;13.284;2023-12-04T06:16:45;1.20;99.90
18126;DHT22;53956;52.442;13.284;2023-12-04T06:19:12;1.00;99.90
18126;DHT22;53956;52.442;13.284;2023-12-04T06:21:39;0.60;99.90
18126;DHT22;53956;52.442;13.284;2023-12-04T06:24:09;1.10;99.90
18126;DHT22;53956;52.442;13.284;2023-12-04T06:26:36;0.70;99.90
18126;DHT22;53956;52.442;13.284;2023-12-04T06:29:08;0.70;99.90
18126;DHT22;53956;52.442;13.284;2023-12-04T06:31:35;0.70;99.90
18126;DHT22;53956;52.442;13.284;2023-12-04T06:34:02;0.90;99.90
18126;DHT22;53956;52.442;13.284;2023-12-04T06:36:31;0.90;99.90
18126;DHT22;53956;52.442;13.284;2023-12-04T06:39:02;0.70;99.90
18126;DHT22;53956;52.442;13.284;2023-12-04T06:41:32;0.90;99.90
18126;DHT22;53956;52.442;13.284;2023-12-04T06:43:59;0.80;99.90
18126;DHT22;53956;52.442;13.284;2023-12-04T06:46:27;0.80;99.90
18126;DHT22;53956;52.442;13.284;2023-12-04T06:48:57;0.90;99.90
18126;DHT22;53956;52.442;13.284;2023-12-04T06:51:25;1.10;99.90
18126;DHT22;53956;52.442;13.284;2023-12-04T06:53:52;1.10;99.90
18126;DHT22;53956;52.442;13.284;2023-12-04T06:56:18;1.20;99.90
18126;DHT22;53956;52.442;13.284;2023-12-04T06:58:46;1.10;99.90
18126;DHT22;53956;52.442;13.284;2023-12-04T07:01:13;1.40;99.90
18126;DHT22;53956;52.442;13.284;2023-12-04T07:03:39;1.20;99.90
18126;DHT22;53956;52.442;13.284;2023-12-04T07:06:06;1.30;99.90
18126;DHT22;53956;52.442;13.284;2023-12-04T07:08:33;1.30;99.90
18126;DHT22;53956;52.442;13.284;2023-12-04T07:11:00;1.20;99.90
18126;DHT22;53956;52.442;13.284;2023-12-04T07:13:26;1.30;99.90
18126;DHT22;53956;52.442;13.284;2023-12-04T07:15:54;1.30;99.90
18126;DHT22;53956;52.442;13.284;2023-12-04T07:18:21;1.50;99.90
18126;DHT22;53956;52.442;13.284;2023-12-04T07:20:47;1.20;99.90
18126;DHT22;53956;52.442;13.284;2023-12-04T07:23:14;1.40;99.90
18126;DHT22;53956;52.442;13.284;2023-12-04T07:25:41;1.40;99.90
18126;DHT22;53956;52.442;13.284;2023-12-04T07:28:07;1.20;99.90
18126;DHT22;53956;52.442;13.284;2023-12-04T07:30:34;1.40;99.90
18126;DHT22;53956;52.442;13.284;2023-12-04T07:33:02;1.30;99.90
18126;DHT22;53956;52.442;13.284;2023-12-04T07:35:29;1.40;99.90
18126;DHT22;53956;52.442;13.284;2023-12-04T07:37:56;1.60;99.90
18126;DHT22;53956;52.442;13.284;2023-12-04T07:40:22;1.60;99.90
18126;DHT22;53956;52.442;13.284;2023-12-04T07:42:49;1.70;99.90
18126;DHT22;53956;52.442;13.284;2023-12-04T07:45:16;1.80;99.90
18126;DHT22;53956;52.442;13.284;2023-12-04T07:47:43;1.90;99.90
18126;DHT22;53956;52.442;13.284;2023-12-04T07:50:11;1.70;99.90
18126;DHT22;53956;52.442;13.284;2023-12-04T07:52:37;1.60;99.90
18126;DHT22;53956;52.442;13.284;2023-12-04T07:55:04;1.90;99.90
18126;DHT22;53956;52.442;13.284;2023-12-04T07:57:31;1.90;99.90
18126;DHT22;53956;52.442;13.284;2023-12-04T07:59:58;1.70;99.90
18126;DHT22;53956;52.442;13.284;2023-12-04T08:02:24;1.90;99.90
18126;DHT22;53956;52.442;13.284;2023-12-04T08:04:51;1.90;99.90
18126;DHT22;53956;52.442;13.284;2023-12-04T08:07:20;1.70;99.90
18126;DHT22;53956;52.442;13.284;2023-12-04T08:09:46;1.70;99.90
18126;DHT22;53956;52.442;13.284;2023-12-04T08:12:13;1.70;99.90
18126;DHT22;53956;52.442;13.284;2023-12-04T08:14:40;1.70;99.90
18126;DHT22;53956;52.442;13.284;2023-12-04T08:17:06;1.70;99.90
18126;DHT22;53956;52.442;13.284;2023-12-04T08:19:33;1.90;99.90
18126;DHT22;53956;52.442;13.284;2023-12-04T08:22:00;1.70;99.90
18126;DHT22;53956;52.442;13.284;2023-12-04T08:24:27;1.40;99.90
18126;DHT22;53956;52.442;13.284;2023-12-04T08:26:54;1.60;99.90
18126;DHT22;53956;52.442;13.284;2023-12-04T08:29:22;1.60;99.90
18126;DHT22;53956;52.442;13.284;2023-12-04T08:31:49;1.70;99.90
18126;DHT22;53956;52.442;13.284;2023-12-04T08:34:15;1.80;99.90
18126;DHT22;53956;52.442;13.284;2023-12-04T08:36:42;1.80;99.90
18126;DHT22;53956;52.442;13.284;2023-12-04T08:39:09;1.90;99.90
18126;DHT22;53956;52.442;13.284;2023-12-04T08:41:37;2.20;99.90
18126;DHT22;53956;52.442;13.284;2023-12-04T08:44:04;1.80;99.90
18126;DHT22;53956;52.442;13.284;2023-12-04T08:46:30;1.90;99.90
18126;DHT22;53956;52.442;13.284;2023-12-04T08:48:57;1.90;99.90
18126;DHT22;53956;52.442;13.284;2023-12-04T08:51:23;2.10;99.90
18126;DHT22;53956;52.442;13.284;2023-12-04T08:53:50;2.00;99.90
18126;DHT22;53956;52.442;13.284;2023-12-04T08:56:17;2.00;99.90
18126;DHT22;53956;52.442;13.284;2023-12-04T08:58:45;2.00;99.90
18126;DHT22;53956;52.442;13.284;2023-12-04T09:01:11;1.90;99.90
18126;DHT22;53956;52.442;13.284;2023-12-04T09:03:38;2.00;99.90
18126;DHT22;53956;52.442;13.284;2023-12-04T09:06:05;2.20;99.90
18126;DHT22;53956;52.442;13.284;2023-12-04T09:08:31;2.10;99.90
18126;DHT22;53956;52.442;13.284;2023-12-04T09:10:58;2.00;99.90
18126;DHT22;53956;52.442;13.284;2023-12-04T09:13:25;2.30;99.90
18126;DHT22;53956;52.442;13.284;2023-12-04T09:15:53;2.10;99.90
18126;DHT22;53956;52.442;13.284;2023-12-04T09:18:19;2.10;99.90
18126;DHT22;53956;52.442;13.284;2023-12-04T09:20:46;1.90;99.90
18126;DHT22;53956;52.442;13.284;2023-12-04T09:23:12;2.10;99.90
18126;DHT22;53956;52.442;13.284;2023-12-04T09:25:39;2.10;99.90
18126;DHT22;53956;52.442;13.284;2023-12-04T09:28:05;2.10;99.90
18126;DHT22;53956;52.442;13.284;2023-12-04T09:30:33;2.20;99.90
18126;DHT22;53956;52.442;13.284;2023-12-04T09:33:01;2.10;99.90
18126;DHT22;53956;52.442;13.284;2023-12-04T09:35:28;1.60;99.90
18126;DHT22;53956;52.442;13.284;2023-12-04T09:37:55;1.90;99.90
18126;DHT22;53956;52.442;13.284;2023-12-04T09:40:22;1.80;99.90
18126;DHT22;53956;52.442;13.284;2023-12-04T09:42:49;1.50;99.90
18126;DHT22;53956;52.442;13.284;2023-12-04T09:45:18;1.70;99.90
18126;DHT22;53956;52.442;13.284;2023-12-04T09:47:46;1.60;99.90
18126;DHT22;53956;52.442;13.284;2023-12-04T09:50:16;1.70;99.90
18126;DHT22;53956;52.442;13.284;2023-12-04T09:52:42;1.70;99.90
18126;DHT22;53956;52.442;13.284;2023-12-04T09:55:09;1.20;99.90
18126;DHT22;53956;52.442;13.284;2023-12-04T09:57:37;1.30;99.90
18126;DHT22;53956;52.442;13.284;2023-12-04T10:00:05;1.50;99.90
18126;DHT22;53956;52.442;13.284;2023-12-04T10:02:38;1.60;99.90
18126;DHT22;53956;52.442;13.284;2023-12-04T10:05:06;1.30;99.90
18126;DHT22;53956;52.442;13.284;2023-12-04T10:07:34;1.40;99.90
18126;DHT22;53956;52.442;13.284;2023-12-04T10:10:01;1.30;99.90
18126;DHT22;53956;52.442;13.284;2023-12-04T10:12:30;1.60;99.90
18126;DHT22;53956;52.442;13.284;2023-12-04T10:15:03;1.60;99.90
18126;DHT22;53956;52.442;13.284;2023-12-04T10:17:33;1.90;99.90
18126;DHT22;53956;52.442;13.284;2023-12-04T10:20:05;1.70;99.90
18126;DHT22;53956;52.442;13.284;2023-12-04T10:22:39;1.80;99.90
18126;DHT22;53956;52.442;13.284;2023-12-04T10:25:15;2.00;99.90
18126;DHT22;53956;52.442;13.284;2023-12-04T10:27:42;1.70;99.90
18126;DHT22;53956;52.442;13.284;2023-12-04T10:30:10;2.00;99.90
18126;DHT22;53956;52.442;13.284;2023-12-04T10:32:39;2.00;99.90
18126;DHT22;53956;52.442;13.284;2023-12-04T10:35:06;1.90;99.90
18126;DHT22;53956;52.442;13.284;2023-12-04T10:37:37;2.30;99.90
18126;DHT22;53956;52.442;13.284;2023-12-04T10:40:05;2.10;99.90
18126;DHT22;53956;52.442;13.284;2023-12-04T10:42:34;1.90;99.90
18126;DHT22;53956;52.442;13.284;2023-12-04T10:45:00;1.60;99.90
18126;DHT22;53956;52.442;13.284;2023-12-04T10:47:29;1.50;99.90
18126;DHT22;53956;52.442;13.284;2023-12-04T10:49:56;1.90;99.90
18126;DHT22;53956;52.442;13.284;2023-12-04T10:52:23;2.20;99.90
18126;DHT22;53956;52.442;13.284;2023-12-04T10:54:51;2.20;99.90
18126;DHT22;53956;52.442;13.284;2023-12-04T10:57:21;2.20;99.90
18126;DHT22;53956;52.442;13.284;2023-12-04T10:59:52;2.40;99.90
18126;DHT22;53956;52.442;13.284;2023-12-04T11:02:21;1.90;99.90
18126;DHT22;53956;52.442;13.284;2023-12-04T11:04:55;2.10;99.90
18126;DHT22;53956;52.442;13.284;2023-12-04T11:07:25;2.10;99.90
18126;DHT22;53956;52.442;13.284;2023-12-04T11:09:56;2.30;99.90
18126;DHT22;53956;52.442;13.284;2023-12-04T11:12:25;2.40;99.90
18126;DHT22;53956;52.442;13.284;2023-12-04T11:14:59;2.00;99.90
18126;DHT22;53956;52.442;13.284;2023-12-04T11:17:33;2.00;99.90
18126;DHT22;53956;52.442;13.284;2023-12-04T11:20:07;2.00;99.90
18126;DHT22;53956;52.442;13.284;2023-12-04T11:22:38;2.10;99.90
18126;DHT22;53956;52.442;13.284;2023-12-04T11:25:08;2.30;99.90
18126;DHT22;53956;52.442;13.284;2023-12-04T11:27:36;2.20;99.90
18126;DHT22;53956;52.442;13.284;2023-12-04T11:30:03;2.00;99.90
18126;DHT22;53956;52.442;13.284;2023-12-04T11:32:31;1.90;99.90
18126;DHT22;53956;52.442;13.284;2023-12-04T11:34:59;1.80;99.90
18126;DHT22;53956;52.442;13.284;2023-12-04T11:37:27;1.90;99.90
18126;DHT22;53956;52.442;13.284;2023-12-04T11:39:54;2.20;99.90
18126;DHT22;53956;52.442;13.284;2023-12-04T11:42:24;2.30;99.90
18126;DHT22;53956;52.442;13.284;2023-12-04T11:44:57;2.40;99.90
18126;DHT22;53956;52.442;13.284;2023-12-04T11:47:24;2.20;99.90
18126;DHT22;53956;52.442;13.284;2023-12-04T11:49:51;2.50;99.90
18126;DHT22;53956;52.442;13.284;2023-12-04T11:52:32;2.20;99.90
18126;DHT22;53956;52.442;13.284;2023-12-04T11:55:00;2.20;99.90
18126;DHT22;53956;52.442;13.284;2023-12-04T11:57:34;2.50;99.90
18126;DHT22;53956;52.442;13.284;2023-12-04T12:00:12;2.30;99.90
18126;DHT22;53956;52.442;13.284;2023-12-04T12:02:47;2.30;99.90
18126;DHT22;53956;52.442;13.284;2023-12-04T12:05:15;2.60;99.90
18126;DHT22;53956;52.442;13.284;2023-12-04T12:07:41;2.80;99.90
18126;DHT22;53956;52.442;13.284;2023-12-04T12:10:09;2.40;99.90
18126;DHT22;53956;52.442;13.284;2023-12-04T12:12:37;2.40;99.90
18126;DHT22;53956;52.442;13.284;2023-12-04T12:15:08;2.50;99.90
18126;DHT22;53956;52.442;13.284;2023-12-04T12:17:35;2.30;99.90
18126;DHT22;53956;52.442;13.284;2023-12-04T12:20:02;2.60;99.90
18126;DHT22;53956;52.442;13.284;2023-12-04T12:22:32;2.20;99.90
18126;DHT22;53956;52.442;13.284;2023-12-04T12:24:59;2.10;99.90
18126;DHT22;53956;52.442;13.284;2023-12-04T12:27:25;2.40;99.90
18126;DHT22;53956;52.442;13.284;2023-12-04T12:29:53;2.40;99.90
18126;DHT22;53956;52.442;13.284;2023-12-04T12:32:20;2.50;99.90
18126;DHT22;53956;52.442;13.284;2023-12-04T12:34:47;2.60;99.90
18126;DHT22;53956;52.442;13.284;2023-12-04T12:37:14;2.50;99.90
18126;DHT22;53956;52.442;13.284;2023-12-04T12:39:41;2.50;99.90
18126;DHT22;53956;52.442;13.284;2023-12-04T12:42:08;2.20;99.90
18126;DHT22;53956;52.442;13.284;2023-12-04T12:44:38;2.70;99.90
18126;DHT22;53956;52.442;13.284;2023-12-04T12:47:07;2.80;99.90
18126;DHT22;53956;52.442;13.284;2023-12-04T12:49:34;2.40;99.90
18126;DHT22;53956;52.442;13.284;2023-12-04T12:52:01;2.60;99.90
18126;DHT22;53956;52.442;13.284;2023-12-04T12:54:28;2.60;99.90
18126;DHT22;53956;52.442;13.284;2023-12-04T12:56:58;2.50;99.90
18126;DHT22;53956;52.442;13.284;2023-12-04T12:59:25;2.40;99.90
18126;DHT22;53956;52.442;13.284;2023-12-04T13:01:52;2.40;99.90
18126;DHT22;53956;52.442;13.284;2023-12-04T13:04:20;2.50;99.90
18126;DHT22;53956;52.442;13.284;2023-12-04T13:06:47;2.70;99.90
18126;DHT22;53956;52.442;13.284;2023-12-04T13:09:13;2.60;99.90
18126;DHT22;53956;52.442;13.284;2023-12-04T13:11:43;2.60;99.90
18126;DHT22;53956;52.442;13.284;2023-12-04T13:14:10;2.80;99.90
18126;DHT22;53956;52.442;13.284;2023-12-04T13:16:37;2.70;99.90
18126;DHT22;53956;52.442;13.284;2023-12-04T13:19:03;2.90;99.90
18126;DHT22;53956;52.442;13.284;2023-12-04T13:21:31;2.80;99.90
18126;DHT22;53956;52.442;13.284;2023-12-04T13:23:59;2.80;99.90
18126;DHT22;53956;52.442;13.284;2023-12-04T13:26:25;2.90;99.90
18126;DHT22;53956;52.442;13.284;2023-12-04T13:28:52;2.80;99.90
18126;DHT22;53956;52.442;13.284;2023-12-04T13:31:19;2.80;99.90
18126;DHT22;53956;52.442;13.284;2023-12-04T13:33:46;2.70;99.90
18126;DHT22;53956;52.442;13.284;2023-12-04T13:36:12;2.70;99.90
18126;DHT22;53956;52.442;13.284;2023-12-04T13:38:40;2.80;99.90
18126;DHT22;53956;52.442;13.284;2023-12-04T13:41:07;2.70;99.90
18126;DHT22;53956;52.442;13.284;2023-12-04T13:44:05;2.50;99.90
18126;DHT22;53956;52.442;13.284;2023-12-04T13:46:31;2.80;99.90
18126;DHT22;53956;52.442;13.284;2023-12-04T13:48:58;2.90;99.90
18126;DHT22;53956;52.442;13.284;2023-12-04T13:51:24;2.60;99.90
18126;DHT22;53956;52.442;13.284;2023-12-04T13:53:53;2.90;99.90
18126;DHT22;53956;52.442;13.284;2023-12-04T13:56:26;2.90;99.90
18126;DHT22;53956;52.442;13.284;2023-12-04T13:59:07;3.00;99.90
18126;DHT22;53956;52.442;13.284;2023-12-04T14:01:42;2.70;99.90
18126;DHT22;53956;52.442;13.284;2023-12-04T14:04:09;2.80;99.90
18126;DHT22;53956;52.442;13.284;2023-12-04T14:06:35;2.90;99.90
18126;DHT22;53956;52.442;13.284;2023-12-04T14:09:03;2.90;99.90
18126;DHT22;53956;52.442;13.284;2023-12-04T14:11:35;3.00;99.90
18126;DHT22;53956;52.442;13.284;2023-12-04T14:14:01;2.60;99.90
18126;DHT22;53956;52.442;13.284;2023-12-04T14:16:28;2.90;99.90
18126;DHT22;53956;52.442;13.284;2023-12-04T14:18:55;2.60;99.90
18126;DHT22;53956;52.442;13.284;2023-12-04T14:21:22;2.50;99.90
18126;DHT22;53956;52.442;13.284;2023-12-04T14:23:48;2.60;99.90
18126;DHT22;53956;52.442;13.284;2023-12-04T14:26:16;2.90;99.90
18126;DHT22;53956;52.442;13.284;2023-12-04T14:28:43;2.60;99.90
18126;DHT22;53956;52.442;13.284;2023-12-04T14:31:10;2.70;99.90
18126;DHT22;53956;52.442;13.284;2023-12-04T14:33:37;2.70;99.90
18126;DHT22;53956;52.442;13.284;2023-12-04T14:36:04;2.70;99.90
18126;DHT22;53956;52.442;13.284;2023-12-04T14:38:31;2.60;99.90
18126;DHT22;53956;52.442;13.284;2023-12-04T14:40:58;2.80;99.90
18126;DHT22;53956;52.442;13.284;2023-12-04T14:43:25;3.10;99.90
18126;DHT22;53956;52.442;13.284;2023-12-04T14:45:52;3.20;99.90
18126;DHT22;53956;52.442;13.284;2023-12-04T14:48:19;3.10;99.90
18126;DHT22;53956;52.442;13.284;2023-12-04T14:50:45;2.80;99.90
18126;DHT22;53956;52.442;13.284;2023-12-04T14:53:12;2.80;99.90
18126;DHT22;53956;52.442;13.284;2023-12-04T14:55:49;2.90;99.90
18126;DHT22;53956;52.442;13.284;2023-12-04T14:58:35;2.90;99.90
18126;DHT22;53956;52.442;13.284;2023-12-04T21:02:39;0.50;99.90
18126;DHT22;53956;52.442;13.284;2023-12-04T21:05:07;1.90;99.90
18126;DHT22;53956;52.442;13.284;2023-12-04T21:07:33;2.20;99.90
18126;DHT22;53956;52.442;13.284;2023-12-04T21:10:00;2.30;99.90
18126;DHT22;53956;52.442;13.284;2023-12-04T21:12:27;2.60;99.90
18126;DHT22;53956;52.442;13.284;2023-12-04T21:14:53;2.40;99.90
18126;DHT22;53956;52.442;13.284;2023-12-04T21:17:20;2.00;99.90
18126;DHT22;53956;52.442;13.284;2023-12-04T21:19:48;2.30;99.90
18126;DHT22;53956;52.442;13.284;2023-12-04T21:22:14;2.00;99.90
18126;DHT22;53956;52.442;13.284;2023-12-04T21:24:41;2.10;99.90
18126;DHT22;53956;52.442;13.284;2023-12-04T21:27:08;2.30;99.90
18126;DHT22;53956;52.442;13.284;2023-12-04T21:29:34;2.20;99.90
18126;DHT22;53956;52.442;13.284;2023-12-04T21:32:01;2.10;99.90
18126;DHT22;53956;52.442;13.284;2023-12-04T21:34:28;2.40;99.90